sensor_id;sensor_type;location;lat;lon;timestamp;P1;durP1;ratioP1;P2;durP2;ratioP2
13967;SDS011;39536;52.198;9.920;2023-04-24T00:01:56;0.97;;;0.97;;
13967;SDS011;39536;52.198;9.920;2023-04-24T00:04:24;1.30;;;1.13;;
13967;SDS011;39536;52.198;9.920;2023-04-24T00:06:51;1.10;;;1.10;;
13967;SDS011;39536;52.198;9.920;2023-04-24T00:09:22;0.80;;;0.80;;
13967;SDS011;39536;52.198;9.920;2023-04-24T00:11:49;1.00;;;1.00;;
13967;SDS011;39536;52.198;9.920;2023-04-24T00:14:15;1.67;;;1.13;;
13967;SDS011;39536;52.198;9.920;2023-04-24T00:16:42;1.20;;;1.20;;
13967;SDS011;39536;52.198;9.920;2023-04-24T00:19:08;1.60;;;1.50;;
13967;SDS011;39536;52.198;9.920;2023-04-24T00:21:37;1.00;;;1.00;;
13967;SDS011;39536;52.198;9.920;2023-04-24T00:24:04;0.97;;;0.97;;
13967;SDS011;39536;52.198;9.920;2023-04-24T00:26:31;1.97;;;1.20;;
13967;SDS011;39536;52.198;9.920;2023-04-24T00:28:57;1.57;;;1.33;;
13967;SDS011;39536;52.198;9.920;2023-04-24T00:31:24;1.37;;;1.27;;
13967;SDS011;39536;52.198;9.920;2023-04-24T00:33:50;1.27;;;1.20;;
13967;SDS011;39536;52.198;9.920;2023-04-24T00:36:17;1.67;;;1.57;;
13967;SDS011;39536;52.198;9.920;2023-04-24T00:38:47;1.37;;;1.27;;
13967;SDS011;39536;52.198;9.920;2023-04-24T00:41:13;2.13;;;1.40;;
13967;SDS011;39536;52.198;9.920;2023-04-24T00:43:40;1.23;;;1.20;;
13967;SDS011;39536;52.198;9.920;2023-04-24T00:46:07;1.43;;;1.33;;
13967;SDS011;39536;52.198;9.920;2023-04-24T00:48:34;3.50;;;1.40;;
13967;SDS011;39536;52.198;9.920;2023-04-24T00:51:00;1.50;;;1.40;;
13967;SDS011;39536;52.198;9.920;2023-04-24T00:53:27;1.90;;;1.40;;
13967;SDS011;39536;52.198;9.920;2023-04-24T00:55:55;2.40;;;1.20;;
13967;SDS011;39536;52.198;9.920;2023-04-24T00:58:22;2.63;;;1.43;;
13967;SDS011;39536;52.198;9.920;2023-04-24T01:00:50;1.40;;;1.30;;
13967;SDS011;39536;52.198;9.920;2023-04-24T01:03:18;1.60;;;1.50;;
13967;SDS011;39536;52.198;9.920;2023-04-24T01:05:46;1.60;;;1.23;;
13967;SDS011;39536;52.198;9.920;2023-04-24T01:08:13;1.37;;;1.37;;
13967;SDS011;39536;52.198;9.920;2023-04-24T01:10:40;1.30;;;1.23;;
13967;SDS011;39536;52.198;9.920;2023-04-24T01:13:09;2.13;;;1.30;;
13967;SDS011;39536;52.198;9.920;2023-04-24T01:15:35;1.50;;;1.40;;
13967;SDS011;39536;52.198;9.920;2023-04-24T01:18:02;1.43;;;1.30;;
13967;SDS011;39536;52.198;9.920;2023-04-24T01:20:29;1.53;;;1.27;;
13967;SDS011;39536;52.198;9.920;2023-04-24T01:22:58;1.50;;;1.40;;
13967;SDS011;39536;52.198;9.920;2023-04-24T01:25:25;1.57;;;1.47;;
13967;SDS011;39536;52.198;9.920;2023-04-24T01:27:54;1.27;;;1.17;;
13967;SDS011;39536;52.198;9.920;2023-04-24T01:30:20;3.43;;;1.43;;
13967;SDS011;39536;52.198;9.920;2023-04-24T01:32:47;1.30;;;1.30;;
13967;SDS011;39536;52.198;9.920;2023-04-24T01:35:14;1.10;;;1.10;;
13967;SDS011;39536;52.198;9.920;2023-04-24T01:37:41;1.50;;;1.43;;
13967;SDS011;39536;52.198;9.920;2023-04-24T01:40:09;1.00;;;1.00;;
13967;SDS011;39536;52.198;9.920;2023-04-24T01:42:36;1.10;;;1.00;;
13967;SDS011;39536;52.198;9.920;2023-04-24T01:45:03;1.90;;;1.70;;
13967;SDS011;39536;52.198;9.920;2023-04-24T01:47:31;1.57;;;1.47;;
13967;SDS011;39536;52.198;9.920;2023-04-24T01:49:58;1.00;;;1.00;;
13967;SDS011;39536;52.198;9.920;2023-04-24T01:52:25;2.20;;;1.53;;
13967;SDS011;39536;52.198;9.920;2023-04-24T01:54:52;1.13;;;1.10;;
13967;SDS011;39536;52.198;9.920;2023-04-24T01:57:20;1.37;;;1.20;;
13967;SDS011;39536;52.198;9.920;2023-04-24T01:59:46;1.10;;;1.00;;
13967;SDS011;39536;52.198;9.920;2023-04-24T02:02:13;3.63;;;1.20;;
13967;SDS011;39536;52.198;9.920;2023-04-24T02:04:39;1.00;;;1.00;;
13967;SDS011;39536;52.198;9.920;2023-04-24T02:07:06;0.83;;;0.83;;
13967;SDS011;39536;52.198;9.920;2023-04-24T02:09:33;1.20;;;1.20;;
13967;SDS011;39536;52.198;9.920;2023-04-24T02:11:59;1.03;;;0.93;;
13967;SDS011;39536;52.198;9.920;2023-04-24T02:14:27;0.93;;;0.93;;
13967;SDS011;39536;52.198;9.920;2023-04-24T02:16:54;1.27;;;1.17;;
13967;SDS011;39536;52.198;9.920;2023-04-24T02:19:20;0.80;;;0.80;;
13967;SDS011;39536;52.198;9.920;2023-04-24T02:21:47;0.97;;;0.83;;
13967;SDS011;39536;52.198;9.920;2023-04-24T02:24:13;1.47;;;1.30;;
13967;SDS011;39536;52.198;9.920;2023-04-24T02:26:40;4.00;;;1.00;;
13967;SDS011;39536;52.198;9.920;2023-04-24T02:29:07;3.33;;;1.10;;
13967;SDS011;39536;52.198;9.920;2023-04-24T02:31:35;0.90;;;0.90;;
13967;SDS011;39536;52.198;9.920;2023-04-24T02:34:01;1.20;;;1.10;;
13967;SDS011;39536;52.198;9.920;2023-04-24T02:36:28;3.80;;;1.07;;
13967;SDS011;39536;52.198;9.920;2023-04-24T02:38:55;2.17;;;1.33;;
13967;SDS011;39536;52.198;9.920;2023-04-24T02:41:21;1.00;;;1.00;;
13967;SDS011;39536;52.198;9.920;2023-04-24T02:43:48;1.47;;;0.70;;
13967;SDS011;39536;52.198;9.920;2023-04-24T02:46:14;1.07;;;1.07;;
13967;SDS011;39536;52.198;9.920;2023-04-24T02:48:42;1.10;;;1.00;;
13967;SDS011;39536;52.198;9.920;2023-04-24T02:51:09;1.57;;;1.23;;
13967;SDS011;39536;52.198;9.920;2023-04-24T02:53:35;1.10;;;1.10;;
13967;SDS011;39536;52.198;9.920;2023-04-24T02:56:02;0.90;;;0.90;;
13967;SDS011;39536;52.198;9.920;2023-04-24T02:58:29;2.37;;;1.33;;
13967;SDS011;39536;52.198;9.920;2023-04-24T03:00:55;1.17;;;1.07;;
13967;SDS011;39536;52.198;9.920;2023-04-24T03:03:22;1.10;;;0.90;;
13967;SDS011;39536;52.198;9.920;2023-04-24T03:05:50;1.47;;;0.70;;
13967;SDS011;39536;52.198;9.920;2023-04-24T03:08:16;1.93;;;1.10;;
13967;SDS011;39536;52.198;9.920;2023-04-24T03:10:43;1.57;;;0.90;;
13967;SDS011;39536;52.198;9.920;2023-04-24T03:13:10;1.03;;;1.00;;
13967;SDS011;39536;52.198;9.920;2023-04-24T03:15:36;1.10;;;1.00;;
13967;SDS011;39536;52.198;9.920;2023-04-24T03:18:03;0.83;;;0.83;;
13967;SDS011;39536;52.198;9.920;2023-04-24T03:20:29;1.33;;;0.97;;
13967;SDS011;39536;52.198;9.920;2023-04-24T03:22:57;1.07;;;0.90;;
13967;SDS011;39536;52.198;9.920;2023-04-24T03:25:24;1.77;;;1.00;;
13967;SDS011;39536;52.198;9.920;2023-04-24T03:27:50;0.90;;;0.90;;
13967;SDS011;39536;52.198;9.920;2023-04-24T03:30:17;0.90;;;0.90;;
13967;SDS011;39536;52.198;9.920;2023-04-24T03:32:43;0.80;;;0.80;;
13967;SDS011;39536;52.198;9.920;2023-04-24T03:35:10;1.87;;;1.03;;
13967;SDS011;39536;52.198;9.920;2023-04-24T03:37:36;0.97;;;0.97;;
13967;SDS011;39536;52.198;9.920;2023-04-24T03:40:05;0.70;;;0.70;;
13967;SDS011;39536;52.198;9.920;2023-04-24T03:42:33;0.70;;;0.70;;
13967;SDS011;39536;52.198;9.920;2023-04-24T03:44:59;1.83;;;0.80;;
13967;SDS011;39536;52.198;9.920;2023-04-24T03:47:26;2.10;;;0.90;;
13967;SDS011;39536;52.198;9.920;2023-04-24T03:49:52;1.20;;;0.87;;
13967;SDS011;39536;52.198;9.920;2023-04-24T03:52:20;0.70;;;0.70;;
13967;SDS011;39536;52.198;9.920;2023-04-24T03:54:47;0.70;;;0.70;;
13967;SDS011;39536;52.198;9.920;2023-04-24T03:57:15;0.63;;;0.63;;
13967;SDS011;39536;52.198;9.920;2023-04-24T03:59:41;4.10;;;0.60;;
13967;SDS011;39536;52.198;9.920;2023-04-24T04:02:08;0.93;;;0.93;;
13967;SDS011;39536;52.198;9.920;2023-04-24T04:04:34;0.73;;;0.70;;
13967;SDS011;39536;52.198;9.920;2023-04-24T04:07:01;0.80;;;0.80;;
13967;SDS011;39536;52.198;9.920;2023-04-24T04:09:27;1.50;;;0.80;;
13967;SDS011;39536;52.198;9.920;2023-04-24T04:11:54;1.90;;;1.00;;
13967;SDS011;39536;52.198;9.920;2023-04-24T04:14:22;1.10;;;1.00;;
13967;SDS011;39536;52.198;9.920;2023-04-24T04:16:49;1.60;;;1.50;;
13967;SDS011;39536;52.198;9.920;2023-04-24T04:19:16;2.93;;;0.93;;
13967;SDS011;39536;52.198;9.920;2023-04-24T04:21:42;1.73;;;0.77;;
13967;SDS011;39536;52.198;9.920;2023-04-24T04:24:10;1.10;;;1.00;;
13967;SDS011;39536;52.198;9.920;2023-04-24T04:26:37;4.23;;;1.00;;
13967;SDS011;39536;52.198;9.920;2023-04-24T04:29:04;1.30;;;1.20;;
13967;SDS011;39536;52.198;9.920;2023-04-24T04:31:33;2.50;;;1.07;;
13967;SDS011;39536;52.198;9.920;2023-04-24T04:33:59;0.80;;;0.80;;
13967;SDS011;39536;52.198;9.920;2023-04-24T04:36:26;0.90;;;0.90;;
13967;SDS011;39536;52.198;9.920;2023-04-24T04:38:54;1.50;;;1.40;;
13967;SDS011;39536;52.198;9.920;2023-04-24T04:41:21;1.17;;;1.07;;
13967;SDS011;39536;52.198;9.920;2023-04-24T04:43:48;1.30;;;1.20;;
13967;SDS011;39536;52.198;9.920;2023-04-24T04:46:14;1.90;;;1.10;;
13967;SDS011;39536;52.198;9.920;2023-04-24T04:48:43;1.70;;;1.23;;
13967;SDS011;39536;52.198;9.920;2023-04-24T04:51:09;1.13;;;1.03;;
13967;SDS011;39536;52.198;9.920;2023-04-24T04:53:36;2.30;;;1.07;;
13967;SDS011;39536;52.198;9.920;2023-04-24T04:56:02;1.20;;;0.80;;
13967;SDS011;39536;52.198;9.920;2023-04-24T04:58:29;0.80;;;0.80;;
13967;SDS011;39536;52.198;9.920;2023-04-24T05:00:56;2.63;;;0.93;;
13967;SDS011;39536;52.198;9.920;2023-04-24T05:03:23;1.07;;;0.80;;
13967;SDS011;39536;52.198;9.920;2023-04-24T05:05:51;2.93;;;0.87;;
13967;SDS011;39536;52.198;9.920;2023-04-24T05:08:17;2.20;;;1.00;;
13967;SDS011;39536;52.198;9.920;2023-04-24T05:10:44;2.20;;;0.80;;
13967;SDS011;39536;52.198;9.920;2023-04-24T05:13:11;2.30;;;0.80;;
13967;SDS011;39536;52.198;9.920;2023-04-24T05:15:38;1.30;;;1.00;;
13967;SDS011;39536;52.198;9.920;2023-04-24T05:18:04;2.00;;;0.90;;
13967;SDS011;39536;52.198;9.920;2023-04-24T05:20:31;0.70;;;0.70;;
13967;SDS011;39536;52.198;9.920;2023-04-24T05:22:58;0.50;;;0.50;;
13967;SDS011;39536;52.198;9.920;2023-04-24T05:25:25;1.20;;;0.90;;
13967;SDS011;39536;52.198;9.920;2023-04-24T05:27:52;0.83;;;0.83;;
13967;SDS011;39536;52.198;9.920;2023-04-24T05:30:19;1.57;;;0.80;;
13967;SDS011;39536;52.198;9.920;2023-04-24T05:32:46;0.83;;;0.70;;
13967;SDS011;39536;52.198;9.920;2023-04-24T05:35:12;2.67;;;0.90;;
13967;SDS011;39536;52.198;9.920;2023-04-24T05:37:39;0.67;;;0.63;;
13967;SDS011;39536;52.198;9.920;2023-04-24T05:40:07;1.13;;;0.67;;
13967;SDS011;39536;52.198;9.920;2023-04-24T05:42:35;0.80;;;0.80;;
13967;SDS011;39536;52.198;9.920;2023-04-24T05:45:02;1.03;;;0.80;;
13967;SDS011;39536;52.198;9.920;2023-04-24T05:47:28;1.00;;;0.90;;
13967;SDS011;39536;52.198;9.920;2023-04-24T05:49:55;0.70;;;0.70;;
13967;SDS011;39536;52.198;9.920;2023-04-24T05:52:22;1.17;;;0.97;;
13967;SDS011;39536;52.198;9.920;2023-04-24T05:54:48;0.73;;;0.73;;
13967;SDS011;39536;52.198;9.920;2023-04-24T05:57:16;0.70;;;0.70;;
13967;SDS011;39536;52.198;9.920;2023-04-24T05:59:43;1.50;;;0.80;;
13967;SDS011;39536;52.198;9.920;2023-04-24T06:02:10;1.23;;;0.73;;
13967;SDS011;39536;52.198;9.920;2023-04-24T06:04:36;0.73;;;0.63;;
13967;SDS011;39536;52.198;9.920;2023-04-24T06:07:03;0.70;;;0.70;;
13967;SDS011;39536;52.198;9.920;2023-04-24T06:09:30;0.40;;;0.40;;
13967;SDS011;39536;52.198;9.920;2023-04-24T06:11:56;0.50;;;0.50;;
13967;SDS011;39536;52.198;9.920;2023-04-24T06:14:26;0.70;;;0.70;;
13967;SDS011;39536;52.198;9.920;2023-04-24T06:16:52;0.60;;;0.60;;
13967;SDS011;39536;52.198;9.920;2023-04-24T06:19:19;0.60;;;0.60;;
13967;SDS011;39536;52.198;9.920;2023-04-24T06:21:45;0.60;;;0.60;;
13967;SDS011;39536;52.198;9.920;2023-04-24T06:24:13;1.20;;;0.67;;
13967;SDS011;39536;52.198;9.920;2023-04-24T06:26:41;0.60;;;0.60;;
13967;SDS011;39536;52.198;9.920;2023-04-24T06:29:07;0.80;;;0.80;;
13967;SDS011;39536;52.198;9.920;2023-04-24T06:31:35;2.77;;;1.13;;
13967;SDS011;39536;52.198;9.920;2023-04-24T06:34:02;0.90;;;0.90;;
13967;SDS011;39536;52.198;9.920;2023-04-24T06:36:29;1.50;;;1.20;;
13967;SDS011;39536;52.198;9.920;2023-04-24T06:38:56;2.47;;;1.50;;
13967;SDS011;39536;52.198;9.920;2023-04-24T06:41:22;1.43;;;1.33;;
13967;SDS011;39536;52.198;9.920;2023-04-24T06:43:49;4.40;;;1.47;;
13967;SDS011;39536;52.198;9.920;2023-04-24T06:46:15;2.10;;;1.30;;
13967;SDS011;39536;52.198;9.920;2023-04-24T06:48:43;1.73;;;1.27;;
13967;SDS011;39536;52.198;9.920;2023-04-24T06:51:10;1.50;;;1.40;;
13967;SDS011;39536;52.198;9.920;2023-04-24T06:53:36;1.73;;;1.63;;
13967;SDS011;39536;52.198;9.920;2023-04-24T06:56:03;2.10;;;1.90;;
13967;SDS011;39536;52.198;9.920;2023-04-24T06:58:30;2.03;;;1.93;;
13967;SDS011;39536;52.198;9.920;2023-04-24T07:00:57;2.07;;;1.70;;
13967;SDS011;39536;52.198;9.920;2023-04-24T07:03:23;3.77;;;2.17;;
13967;SDS011;39536;52.198;9.920;2023-04-24T07:05:51;1.57;;;1.50;;
13967;SDS011;39536;52.198;9.920;2023-04-24T07:08:18;1.87;;;1.77;;
13967;SDS011;39536;52.198;9.920;2023-04-24T07:10:46;3.23;;;1.90;;
13967;SDS011;39536;52.198;9.920;2023-04-24T07:13:12;2.33;;;2.20;;
13967;SDS011;39536;52.198;9.920;2023-04-24T07:15:39;2.27;;;2.17;;
13967;SDS011;39536;52.198;9.920;2023-04-24T07:18:06;2.60;;;2.40;;
13967;SDS011;39536;52.198;9.920;2023-04-24T07:20:33;2.60;;;2.43;;
13967;SDS011;39536;52.198;9.920;2023-04-24T07:23:01;2.90;;;2.80;;
13967;SDS011;39536;52.198;9.920;2023-04-24T07:25:28;3.10;;;2.90;;
13967;SDS011;39536;52.198;9.920;2023-04-24T07:27:56;4.13;;;3.27;;
13967;SDS011;39536;52.198;9.920;2023-04-24T07:30:23;3.60;;;3.30;;
13967;SDS011;39536;52.198;9.920;2023-04-24T07:32:49;3.40;;;3.20;;
13967;SDS011;39536;52.198;9.920;2023-04-24T07:35:16;4.17;;;3.83;;
13967;SDS011;39536;52.198;9.920;2023-04-24T07:37:42;4.00;;;3.80;;
13967;SDS011;39536;52.198;9.920;2023-04-24T07:40:12;4.33;;;3.93;;
13967;SDS011;39536;52.198;9.920;2023-04-24T07:42:39;4.73;;;4.43;;
13967;SDS011;39536;52.198;9.920;2023-04-24T07:45:06;5.07;;;4.70;;
13967;SDS011;39536;52.198;9.920;2023-04-24T07:47:33;5.43;;;5.03;;
13967;SDS011;39536;52.198;9.920;2023-04-24T07:50:01;5.00;;;4.67;;
13967;SDS011;39536;52.198;9.920;2023-04-24T07:52:28;5.50;;;5.10;;
13967;SDS011;39536;52.198;9.920;2023-04-24T07:54:55;6.10;;;5.70;;
13967;SDS011;39536;52.198;9.920;2023-04-24T07:57:24;7.10;;;6.20;;
13967;SDS011;39536;52.198;9.920;2023-04-24T07:59:51;5.20;;;4.87;;
13967;SDS011;39536;52.198;9.920;2023-04-24T08:02:18;5.80;;;5.30;;
13967;SDS011;39536;52.198;9.920;2023-04-24T08:04:46;7.27;;;6.57;;
13967;SDS011;39536;52.198;9.920;2023-04-24T08:07:13;6.33;;;5.83;;
13967;SDS011;39536;52.198;9.920;2023-04-24T08:09:39;6.77;;;6.27;;
13967;SDS011;39536;52.198;9.920;2023-04-24T08:12:06;7.67;;;7.17;;
13967;SDS011;39536;52.198;9.920;2023-04-24T08:14:34;8.17;;;7.53;;
13967;SDS011;39536;52.198;9.920;2023-04-24T08:17:00;6.93;;;6.33;;
13967;SDS011;39536;52.198;9.920;2023-04-24T08:19:27;7.97;;;7.37;;
13967;SDS011;39536;52.198;9.920;2023-04-24T08:21:54;6.63;;;6.10;;
13967;SDS011;39536;52.198;9.920;2023-04-24T08:24:20;7.23;;;6.53;;
13967;SDS011;39536;52.198;9.920;2023-04-24T08:26:48;5.90;;;5.50;;
13967;SDS011;39536;52.198;9.920;2023-04-24T08:29:15;6.50;;;6.03;;
13967;SDS011;39536;52.198;9.920;2023-04-24T08:31:43;6.37;;;5.80;;
13967;SDS011;39536;52.198;9.920;2023-04-24T08:34:09;6.60;;;6.20;;
13967;SDS011;39536;52.198;9.920;2023-04-24T08:36:36;6.50;;;5.90;;
13967;SDS011;39536;52.198;9.920;2023-04-24T08:39:05;6.57;;;5.57;;
13967;SDS011;39536;52.198;9.920;2023-04-24T08:41:32;6.20;;;5.70;;
13967;SDS011;39536;52.198;9.920;2023-04-24T08:44:00;5.07;;;4.70;;
13967;SDS011;39536;52.198;9.920;2023-04-24T08:46:28;5.00;;;4.70;;
13967;SDS011;39536;52.198;9.920;2023-04-24T08:48:57;5.43;;;4.93;;
13967;SDS011;39536;52.198;9.920;2023-04-24T08:51:25;5.60;;;4.97;;
13967;SDS011;39536;52.198;9.920;2023-04-24T08:53:53;4.37;;;4.07;;
13967;SDS011;39536;52.198;9.920;2023-04-24T08:56:21;3.70;;;3.40;;
13967;SDS011;39536;52.198;9.920;2023-04-24T08:58:49;4.37;;;4.07;;
13967;SDS011;39536;52.198;9.920;2023-04-24T09:01:16;3.47;;;3.27;;
13967;SDS011;39536;52.198;9.920;2023-04-24T09:03:44;4.53;;;4.23;;
13967;SDS011;39536;52.198;9.920;2023-04-24T09:06:13;4.13;;;3.83;;
13967;SDS011;39536;52.198;9.920;2023-04-24T09:08:40;3.70;;;3.43;;
13967;SDS011;39536;52.198;9.920;2023-04-24T09:11:08;3.53;;;3.23;;
13967;SDS011;39536;52.198;9.920;2023-04-24T09:13:36;4.03;;;3.73;;
13967;SDS011;39536;52.198;9.920;2023-04-24T09:16:03;4.40;;;3.97;;
13967;SDS011;39536;52.198;9.920;2023-04-24T09:18:29;4.47;;;4.07;;
13967;SDS011;39536;52.198;9.920;2023-04-24T09:20:57;4.03;;;3.70;;
13967;SDS011;39536;52.198;9.920;2023-04-24T09:23:26;3.83;;;3.63;;
13967;SDS011;39536;52.198;9.920;2023-04-24T09:25:54;4.10;;;3.80;;
13967;SDS011;39536;52.198;9.920;2023-04-24T09:28:24;3.60;;;3.40;;
13967;SDS011;39536;52.198;9.920;2023-04-24T09:31:01;4.80;;;4.50;;
13967;SDS011;39536;52.198;9.920;2023-04-24T09:33:32;4.53;;;4.23;;
13967;SDS011;39536;52.198;9.920;2023-04-24T09:35:59;4.37;;;4.07;;
13967;SDS011;39536;52.198;9.920;2023-04-24T09:38:34;4.83;;;3.97;;
13967;SDS011;39536;52.198;9.920;2023-04-24T09:41:02;4.90;;;3.80;;
13967;SDS011;39536;52.198;9.920;2023-04-24T09:43:29;3.90;;;3.60;;
13967;SDS011;39536;52.198;9.920;2023-04-24T09:45:56;3.30;;;3.10;;
13967;SDS011;39536;52.198;9.920;2023-04-24T09:48:30;2.83;;;2.63;;
13967;SDS011;39536;52.198;9.920;2023-04-24T09:50:58;3.57;;;3.27;;
13967;SDS011;39536;52.198;9.920;2023-04-24T09:53:25;2.80;;;2.60;;
13967;SDS011;39536;52.198;9.920;2023-04-24T09:55:54;2.73;;;2.53;;
13967;SDS011;39536;52.198;9.920;2023-04-24T09:58:24;3.10;;;2.90;;
13967;SDS011;39536;52.198;9.920;2023-04-24T10:00:53;3.07;;;2.87;;
13967;SDS011;39536;52.198;9.920;2023-04-24T10:03:20;3.10;;;2.87;;
13967;SDS011;39536;52.198;9.920;2023-04-24T10:05:46;3.90;;;3.37;;
13967;SDS011;39536;52.198;9.920;2023-04-24T10:08:13;3.10;;;2.90;;
13967;SDS011;39536;52.198;9.920;2023-04-24T10:10:40;3.20;;;3.00;;
13967;SDS011;39536;52.198;9.920;2023-04-24T10:13:10;3.50;;;3.20;;
13967;SDS011;39536;52.198;9.920;2023-04-24T10:15:37;3.03;;;2.83;;
13967;SDS011;39536;52.198;9.920;2023-04-24T10:18:05;3.13;;;2.93;;
13967;SDS011;39536;52.198;9.920;2023-04-24T10:20:33;2.60;;;2.50;;
13967;SDS011;39536;52.198;9.920;2023-04-24T10:23:00;2.70;;;2.50;;
13967;SDS011;39536;52.198;9.920;2023-04-24T10:25:27;2.63;;;2.43;;
13967;SDS011;39536;52.198;9.920;2023-04-24T10:27:55;3.27;;;2.70;;
13967;SDS011;39536;52.198;9.920;2023-04-24T10:30:26;2.83;;;2.63;;
13967;SDS011;39536;52.198;9.920;2023-04-24T10:32:54;2.30;;;2.20;;
13967;SDS011;39536;52.198;9.920;2023-04-24T10:35:21;2.83;;;2.63;;
13967;SDS011;39536;52.198;9.920;2023-04-24T10:37:53;2.60;;;2.40;;
13967;SDS011;39536;52.198;9.920;2023-04-24T10:40:25;3.13;;;2.50;;
13967;SDS011;39536;52.198;9.920;2023-04-24T10:42:53;2.63;;;2.47;;
13967;SDS011;39536;52.198;9.920;2023-04-24T10:45:20;2.57;;;2.47;;
13967;SDS011;39536;52.198;9.920;2023-04-24T10:47:53;2.50;;;2.40;;
13967;SDS011;39536;52.198;9.920;2023-04-24T10:50:23;2.83;;;2.63;;
13967;SDS011;39536;52.198;9.920;2023-04-24T10:52:50;2.43;;;2.20;;
13967;SDS011;39536;52.198;9.920;2023-04-24T10:55:29;2.87;;;2.50;;
13967;SDS011;39536;52.198;9.920;2023-04-24T10:58:07;2.93;;;2.73;;
13967;SDS011;39536;52.198;9.920;2023-04-24T11:00:34;2.80;;;2.60;;
13967;SDS011;39536;52.198;9.920;2023-04-24T11:03:04;2.73;;;2.50;;
13967;SDS011;39536;52.198;9.920;2023-04-24T11:05:50;2.80;;;2.60;;
13967;SDS011;39536;52.198;9.920;2023-04-24T11:08:23;2.87;;;2.67;;
13967;SDS011;39536;52.198;9.920;2023-04-24T11:10:55;2.70;;;2.40;;
13967;SDS011;39536;52.198;9.920;2023-04-24T11:13:27;2.70;;;2.60;;
13967;SDS011;39536;52.198;9.920;2023-04-24T11:16:15;2.33;;;2.23;;
13967;SDS011;39536;52.198;9.920;2023-04-24T11:18:51;1.87;;;1.77;;
13967;SDS011;39536;52.198;9.920;2023-04-24T11:21:19;1.80;;;1.70;;
13967;SDS011;39536;52.198;9.920;2023-04-24T11:23:46;1.70;;;1.60;;
13967;SDS011;39536;52.198;9.920;2023-04-24T11:26:13;1.60;;;1.50;;
13967;SDS011;39536;52.198;9.920;2023-04-24T11:28:44;1.20;;;1.20;;
13967;SDS011;39536;52.198;9.920;2023-04-24T11:34:06;1.80;;;1.53;;
13967;SDS011;39536;52.198;9.920;2023-04-24T11:36:34;1.70;;;1.57;;
13967;SDS011;39536;52.198;9.920;2023-04-24T11:39:01;4.30;;;2.10;;
13967;SDS011;39536;52.198;9.920;2023-04-24T11:41:28;1.80;;;1.70;;
13967;SDS011;39536;52.198;9.920;2023-04-24T11:43:55;1.10;;;1.10;;
13967;SDS011;39536;52.198;9.920;2023-04-24T11:46:22;2.90;;;2.70;;
13967;SDS011;39536;52.198;9.920;2023-04-24T11:48:49;2.13;;;2.03;;
13967;SDS011;39536;52.198;9.920;2023-04-24T11:51:16;2.80;;;2.60;;
13967;SDS011;39536;52.198;9.920;2023-04-24T11:53:43;2.20;;;2.10;;
13967;SDS011;39536;52.198;9.920;2023-04-24T11:56:10;1.77;;;1.67;;
13967;SDS011;39536;52.198;9.920;2023-04-24T11:58:37;1.83;;;1.73;;
13967;SDS011;39536;52.198;9.920;2023-04-24T12:01:04;1.50;;;1.40;;
13967;SDS011;39536;52.198;9.920;2023-04-24T12:03:31;1.70;;;1.60;;
13967;SDS011;39536;52.198;9.920;2023-04-24T12:06:04;2.37;;;1.80;;
13967;SDS011;39536;52.198;9.920;2023-04-24T12:08:34;1.87;;;1.77;;
13967;SDS011;39536;52.198;9.920;2023-04-24T12:11:00;1.77;;;1.67;;
13967;SDS011;39536;52.198;9.920;2023-04-24T12:13:28;1.00;;;1.00;;
13967;SDS011;39536;52.198;9.920;2023-04-24T12:15:56;1.70;;;1.60;;
13967;SDS011;39536;52.198;9.920;2023-04-24T12:18:23;1.80;;;1.70;;
13967;SDS011;39536;52.198;9.920;2023-04-24T12:20:49;2.10;;;2.00;;
13967;SDS011;39536;52.198;9.920;2023-04-24T12:23:16;3.90;;;2.00;;
13967;SDS011;39536;52.198;9.920;2023-04-24T12:25:45;2.17;;;2.07;;
13967;SDS011;39536;52.198;9.920;2023-04-24T12:28:12;0.87;;;0.87;;
13967;SDS011;39536;52.198;9.920;2023-04-24T12:30:40;0.70;;;0.70;;
13967;SDS011;39536;52.198;9.920;2023-04-24T12:33:09;0.87;;;0.73;;
13967;SDS011;39536;52.198;9.920;2023-04-24T12:35:35;1.30;;;1.20;;
13967;SDS011;39536;52.198;9.920;2023-04-24T12:38:05;1.27;;;1.27;;
13967;SDS011;39536;52.198;9.920;2023-04-24T12:40:33;1.50;;;1.40;;
13967;SDS011;39536;52.198;9.920;2023-04-24T12:43:14;1.17;;;1.17;;
13967;SDS011;39536;52.198;9.920;2023-04-24T12:45:43;0.90;;;0.90;;
13967;SDS011;39536;52.198;9.920;2023-04-24T12:48:10;2.10;;;1.20;;
13967;SDS011;39536;52.198;9.920;2023-04-24T12:50:37;1.50;;;1.10;;
13967;SDS011;39536;52.198;9.920;2023-04-24T12:53:04;1.60;;;1.50;;
13967;SDS011;39536;52.198;9.920;2023-04-24T12:55:32;1.20;;;1.20;;
13967;SDS011;39536;52.198;9.920;2023-04-24T12:57:58;1.30;;;1.30;;
13967;SDS011;39536;52.198;9.920;2023-04-24T13:00:27;1.23;;;1.20;;
13967;SDS011;39536;52.198;9.920;2023-04-24T13:02:53;1.40;;;1.40;;
13967;SDS011;39536;52.198;9.920;2023-04-24T13:05:20;1.73;;;1.63;;
13967;SDS011;39536;52.198;9.920;2023-04-24T13:07:46;0.83;;;0.83;;
13967;SDS011;39536;52.198;9.920;2023-04-24T13:10:13;1.13;;;1.00;;
13967;SDS011;39536;52.198;9.920;2023-04-24T13:12:40;1.20;;;1.20;;
13967;SDS011;39536;52.198;9.920;2023-04-24T13:15:10;1.20;;;1.20;;
13967;SDS011;39536;52.198;9.920;2023-04-24T13:17:38;1.90;;;1.23;;
13967;SDS011;39536;52.198;9.920;2023-04-24T13:20:05;1.83;;;1.73;;
13967;SDS011;39536;52.198;9.920;2023-04-24T13:22:32;2.43;;;1.80;;
13967;SDS011;39536;52.198;9.920;2023-04-24T13:24:59;1.80;;;1.70;;
13967;SDS011;39536;52.198;9.920;2023-04-24T13:27:26;0.93;;;0.93;;
13967;SDS011;39536;52.198;9.920;2023-04-24T13:29:52;0.70;;;0.70;;
13967;SDS011;39536;52.198;9.920;2023-04-24T13:32:19;0.60;;;0.60;;
13967;SDS011;39536;52.198;9.920;2023-04-24T13:34:47;0.70;;;0.70;;
13967;SDS011;39536;52.198;9.920;2023-04-24T13:37:13;1.00;;;1.00;;
13967;SDS011;39536;52.198;9.920;2023-04-24T13:39:40;3.10;;;1.03;;
13967;SDS011;39536;52.198;9.920;2023-04-24T13:42:07;0.93;;;0.87;;
13967;SDS011;39536;52.198;9.920;2023-04-24T13:44:34;1.10;;;1.00;;
13967;SDS011;39536;52.198;9.920;2023-04-24T13:47:00;0.80;;;0.80;;
13967;SDS011;39536;52.198;9.920;2023-04-24T13:49:27;0.57;;;0.57;;
13967;SDS011;39536;52.198;9.920;2023-04-24T13:51:56;0.60;;;0.60;;
13967;SDS011;39536;52.198;9.920;2023-04-24T13:54:22;1.23;;;0.67;;
13967;SDS011;39536;52.198;9.920;2023-04-24T13:56:50;0.57;;;0.57;;
13967;SDS011;39536;52.198;9.920;2023-04-24T13:59:19;0.93;;;0.60;;
13967;SDS011;39536;52.198;9.920;2023-04-24T14:01:51;0.40;;;0.40;;
13967;SDS011;39536;52.198;9.920;2023-04-24T14:04:22;0.40;;;0.40;;
13967;SDS011;39536;52.198;9.920;2023-04-24T14:06:50;0.40;;;0.40;;
13967;SDS011;39536;52.198;9.920;2023-04-24T14:09:19;2.47;;;0.60;;
13967;SDS011;39536;52.198;9.920;2023-04-24T14:11:45;0.57;;;0.43;;
13967;SDS011;39536;52.198;9.920;2023-04-24T14:14:12;0.63;;;0.63;;
13967;SDS011;39536;52.198;9.920;2023-04-24T14:16:38;0.90;;;0.60;;
13967;SDS011;39536;52.198;9.920;2023-04-24T14:19:05;0.93;;;0.93;;
13967;SDS011;39536;52.198;9.920;2023-04-24T14:21:32;0.50;;;0.50;;
13967;SDS011;39536;52.198;9.920;2023-04-24T14:23:58;0.50;;;0.50;;
13967;SDS011;39536;52.198;9.920;2023-04-24T14:26:26;2.00;;;0.80;;
13967;SDS011;39536;52.198;9.920;2023-04-24T14:28:53;1.40;;;1.30;;
13967;SDS011;39536;52.198;9.920;2023-04-24T14:31:20;0.63;;;0.63;;
13967;SDS011;39536;52.198;9.920;2023-04-24T14:33:46;0.80;;;0.80;;
13967;SDS011;39536;52.198;9.920;2023-04-24T14:36:13;0.90;;;0.90;;
13967;SDS011;39536;52.198;9.920;2023-04-24T14:38:40;1.07;;;1.03;;
13967;SDS011;39536;52.198;9.920;2023-04-24T14:41:06;1.10;;;1.10;;
13967;SDS011;39536;52.198;9.920;2023-04-24T14:43:36;1.20;;;1.10;;
13967;SDS011;39536;52.198;9.920;2023-04-24T14:46:03;1.43;;;1.30;;
13967;SDS011;39536;52.198;9.920;2023-04-24T14:48:30;1.50;;;1.40;;
13967;SDS011;39536;52.198;9.920;2023-04-24T14:50:57;1.70;;;1.60;;
13967;SDS011;39536;52.198;9.920;2023-04-24T14:53:24;1.23;;;1.20;;